createdAt,value
2019-01-31T00:01:02.222Z,2.05
2019-01-31T00:04:05.803Z,4.25
2019-01-31T00:07:00.804Z,3.17
2019-01-31T00:10:19.964Z,4.15
2019-01-31T00:12:57.180Z,5.22
2019-01-31T00:15:48.050Z,4.28
2019-01-31T00:18:45.410Z,4.67
2019-01-31T00:21:40.980Z,4.72
2019-01-31T00:24:44.046Z,7.78
2019-01-31T00:27:44.116Z,6.40
2019-01-31T00:30:53.992Z,6.90
2019-01-31T00:34:03.979Z,5.70
2019-01-31T00:37:20.584Z,6.00
2019-01-31T00:40:25.401Z,6.00
2019-01-31T00:43:18.873Z,6.92
2019-01-31T00:46:28.198Z,5.25
2019-01-31T00:49:32.905Z,5.40
2019-01-31T00:52:48.951Z,5.37
2019-01-31T00:55:57.764Z,5.53
2019-01-31T00:58:56.228Z,6.00
2019-01-31T01:02:05.084Z,3.17
2019-01-31T01:05:05.568Z,4.45
2019-01-31T01:08:24.485Z,4.42
2019-01-31T01:11:49.658Z,5.45
2019-01-31T01:14:43.405Z,9.40
2019-01-31T01:17:27.110Z,10.00
2019-01-31T01:20:25.647Z,6.67
2019-01-31T01:23:41.403Z,6.30
2019-01-31T01:26:52.893Z,6.78
2019-01-31T01:29:31.797Z,8.30
2019-01-31T01:32:22.916Z,8.45
2019-01-31T01:35:18.535Z,7.20
2019-01-31T01:38:14.351Z,8.78
2019-01-31T01:41:18.632Z,10.20
2019-01-31T01:44:08.471Z,9.33
2019-01-31T01:47:06.755Z,7.97
2019-01-31T01:49:51.745Z,11.70
2019-01-31T01:53:08.147Z,11.00
2019-01-31T01:55:55.540Z,10.28
2019-01-31T01:58:53.785Z,8.45
2019-01-31T02:01:44.654Z,10.65
2019-01-31T02:04:29.186Z,9.23
2019-01-31T02:07:08.308Z,9.70
2019-01-31T02:10:06.899Z,10.32
2019-01-31T02:13:05.842Z,9.10
2019-01-31T02:15:54.585Z,9.80
2019-01-31T02:19:10.974Z,11.78
2019-01-31T02:21:56.332Z,12.88
2019-01-31T02:24:44.862Z,11.53
2019-01-31T02:27:57.032Z,14.85
2019-01-31T02:31:06.368Z,13.72
2019-01-31T02:34:16.354Z,14.40
2019-01-31T02:37:22.285Z,13.22
2019-01-31T02:40:29.268Z,14.25
2019-01-31T02:43:04.495Z,11.15
2019-01-31T02:46:05.863Z,14.18
2019-01-31T02:49:12.141Z,14.85
2019-01-31T02:51:51.209Z,12.03
2019-01-31T02:54:25.311Z,14.40
2019-01-31T02:57:15.099Z,12.60
2019-01-31T03:00:26.368Z,13.70
2019-01-31T03:03:19.545Z,12.40
2019-01-31T03:06:29.689Z,16.27
2019-01-31T03:09:12.220Z,15.85
2019-01-31T03:12:05.244Z,13.83
2019-01-31T03:14:41.424Z,12.28
2019-01-31T03:18:01.961Z,11.83
2019-01-31T03:21:14.478Z,13.40
2019-01-31T03:24:39.241Z,15.65
2019-01-31T03:27:46.361Z,14.90
2019-01-31T03:30:54.820Z,15.08
2019-01-31T03:33:50.419Z,10.43
2019-01-31T03:37:13.035Z,13.72
2019-01-31T03:40:09.740Z,11.85
2019-01-31T03:43:14.897Z,11.22
2019-01-31T03:46:28.037Z,14.47
2019-01-31T03:49:18.862Z,13.78
2019-01-31T03:52:17.021Z,16.57
2019-01-31T03:55:39.211Z,11.28
2019-01-31T03:58:30.500Z,14.15
2019-01-31T04:01:51.785Z,11.65
2019-01-31T04:04:25.551Z,16.85
2019-01-31T04:06:54.483Z,20.25
2019-01-31T04:09:23.413Z,16.30
2019-01-31T04:11:52.446Z,16.15
2019-01-31T04:14:21.381Z,14.38
2019-01-31T04:16:50.417Z,14.78
2019-01-31T04:19:19.533Z,15.65
2019-01-31T04:21:48.528Z,14.80
2019-01-31T04:24:17.380Z,16.62
2019-01-31T04:26:46.500Z,14.80
2019-01-31T04:29:15.477Z,12.35
2019-01-31T04:31:44.438Z,14.15
2019-01-31T04:34:13.570Z,14.35
2019-01-31T04:36:42.519Z,14.45
2019-01-31T04:39:11.687Z,13.80
2019-01-31T04:41:40.731Z,13.78
2019-01-31T04:44:09.717Z,14.23
2019-01-31T04:46:38.629Z,15.28
2019-01-31T04:49:07.588Z,17.45
2019-01-31T04:51:36.577Z,14.63
2019-01-31T04:54:13.475Z,14.40
2019-01-31T04:56:42.500Z,18.35
2019-01-31T04:59:11.539Z,15.75
2019-01-31T05:01:40.446Z,16.52
2019-01-31T05:04:09.427Z,14.68
2019-01-31T05:06:38.344Z,15.28
2019-01-31T05:09:13.865Z,16.17
2019-01-31T05:11:44.321Z,18.62
2019-01-31T05:14:13.498Z,12.70
2019-01-31T05:16:42.528Z,16.95
2019-01-31T05:19:11.531Z,15.20
2019-01-31T05:21:43.778Z,15.65
2019-01-31T05:24:15.558Z,14.25
2019-01-31T05:26:44.606Z,19.05
2019-01-31T05:29:13.697Z,16.42
2019-01-31T05:31:45.407Z,19.15
2019-01-31T05:34:14.399Z,15.63
2019-01-31T05:36:43.428Z,16.07
2019-01-31T05:39:12.449Z,17.57
2019-01-31T05:41:41.388Z,17.67
2019-01-31T05:44:10.365Z,16.82
2019-01-31T05:46:39.347Z,19.67
2019-01-31T05:49:08.347Z,17.87
2019-01-31T05:51:39.380Z,15.10
2019-01-31T05:54:12.592Z,20.35
2019-01-31T05:56:41.537Z,17.32
2019-01-31T05:59:10.448Z,17.02
2019-01-31T06:01:39.432Z,14.68
2019-01-31T06:04:08.486Z,16.00
2019-01-31T06:06:37.389Z,17.87
2019-01-31T06:09:13.452Z,18.00
2019-01-31T06:11:42.488Z,14.85
2019-01-31T06:14:11.566Z,13.90
2019-01-31T06:16:40.774Z,15.48
2019-01-31T06:19:09.794Z,17.87
2019-01-31T06:21:38.871Z,16.62
2019-01-31T06:24:07.819Z,16.73
2019-01-31T06:26:36.803Z,17.85
2019-01-31T06:29:05.714Z,21.37
2019-01-31T06:31:34.739Z,19.62
2019-01-31T06:34:03.769Z,18.40
2019-01-31T06:36:32.757Z,22.32
2019-01-31T06:39:01.653Z,16.85
2019-01-31T06:41:30.604Z,21.50
2019-01-31T06:43:59.469Z,17.17
2019-01-31T06:46:28.412Z,16.97
2019-01-31T06:48:57.604Z,16.15
2019-01-31T06:51:26.443Z,16.05
2019-01-31T06:53:55.420Z,22.60
2019-01-31T06:56:24.403Z,16.70
2019-01-31T06:58:53.415Z,17.05
2019-01-31T07:01:22.328Z,19.87
2019-01-31T07:03:51.240Z,17.80
2019-01-31T07:06:20.236Z,16.45
2019-01-31T07:08:49.211Z,17.87
2019-01-31T07:11:29.304Z,16.80
2019-01-31T07:13:48.994Z,19.82
2019-01-31T07:16:17.996Z,18.60
2019-01-31T07:18:46.839Z,17.48
2019-01-31T07:21:15.841Z,18.25
2019-01-31T07:23:46.017Z,18.70
2019-01-31T07:26:15.106Z,23.42
2019-01-31T07:28:44.051Z,16.17
2019-01-31T07:31:13.035Z,16.40
2019-01-31T07:33:41.878Z,23.77
2019-01-31T07:36:14.012Z,16.57
2019-01-31T07:38:42.894Z,17.52
2019-01-31T07:41:11.845Z,18.90
2019-01-31T07:43:40.705Z,22.70
2019-01-31T07:46:09.732Z,20.32
2019-01-31T07:48:38.740Z,18.62
2019-01-31T07:51:07.726Z,19.73
2019-01-31T07:53:36.739Z,18.77
2019-01-31T07:56:05.710Z,19.48
2019-01-31T07:58:34.602Z,22.90
2019-01-31T08:01:03.657Z,31.17
2019-01-31T08:03:32.655Z,28.80
2019-01-31T08:06:02.711Z,25.57
2019-01-31T08:08:31.619Z,33.58
2019-01-31T08:11:00.604Z,42.50
2019-01-31T08:13:29.604Z,35.50
2019-01-31T08:15:58.504Z,42.60
2019-01-31T08:18:27.496Z,43.00
2019-01-31T08:20:56.420Z,48.75
2019-01-31T08:23:25.308Z,56.25
2019-01-31T08:25:54.295Z,45.30
2019-01-31T08:28:23.279Z,51.50
2019-01-31T08:30:52.351Z,52.55
2019-01-31T08:33:21.320Z,53.20
2019-01-31T08:35:50.290Z,58.25
2019-01-31T08:38:19.297Z,53.55
2019-01-31T08:40:48.286Z,52.23
2019-01-31T08:43:20.307Z,54.53
2019-01-31T08:45:48.010Z,51.23
2019-01-31T08:48:16.874Z,53.95
2019-01-31T08:50:45.876Z,54.67
2019-01-31T08:53:14.870Z,49.90
2019-01-31T08:55:43.772Z,51.55
2019-01-31T08:58:12.767Z,51.05
2019-01-31T09:00:42.520Z,47.23
2019-01-31T09:03:11.451Z,47.45
2019-01-31T09:05:40.519Z,52.38
2019-01-31T09:08:09.527Z,54.18
2019-01-31T09:10:39.546Z,47.05
2019-01-31T09:13:10.321Z,42.53
2019-01-31T09:15:39.304Z,51.95
2019-01-31T09:18:14.448Z,48.85
2019-01-31T09:20:47.555Z,60.17
2019-01-31T09:23:31.118Z,53.02
2019-01-31T09:26:41.591Z,69.85
2019-01-31T09:29:29.162Z,59.55
2019-01-31T09:32:57.265Z,75.60
2019-01-31T09:35:42.136Z,72.37
2019-01-31T09:38:56.928Z,71.85
2019-01-31T09:41:47.063Z,70.78
2019-01-31T09:44:54.646Z,64.82
2019-01-31T09:47:59.253Z,64.05
2019-01-31T09:51:24.403Z,57.90
2019-01-31T09:54:32.955Z,60.28
2019-01-31T09:57:47.464Z,66.55
2019-01-31T10:01:18.693Z,63.45
2019-01-31T10:04:05.111Z,60.33
2019-01-31T10:07:11.048Z,60.03
2019-01-31T10:10:02.311Z,66.15
2019-01-31T10:13:03.079Z,74.22
2019-01-31T10:16:14.669Z,62.03
2019-01-31T10:19:12.075Z,66.47
2019-01-31T10:22:18.953Z,63.85
2019-01-31T10:25:15.819Z,68.02
2019-01-31T10:28:03.284Z,59.03
2019-01-31T10:30:57.234Z,58.13
2019-01-31T10:33:49.015Z,57.85
2019-01-31T10:37:00.319Z,59.55
2019-01-31T10:40:05.473Z,51.58
2019-01-31T10:43:12.748Z,52.80
2019-01-31T10:46:14.659Z,57.70
2019-01-31T10:49:32.726Z,52.67
2019-01-31T10:52:30.128Z,53.80
2019-01-31T10:55:27.482Z,56.30
2019-01-31T10:58:37.146Z,55.95
2019-01-31T11:01:32.863Z,54.10
2019-01-31T11:04:46.374Z,49.20
2019-01-31T11:07:51.065Z,63.25
2019-01-31T11:10:45.488Z,61.45
2019-01-31T11:13:54.900Z,55.20
2019-01-31T11:17:00.640Z,64.87
2019-01-31T11:20:09.403Z,51.10
2019-01-31T11:23:09.129Z,60.65
2019-01-31T11:26:15.390Z,55.15
2019-01-31T11:29:03.894Z,59.70
2019-01-31T11:31:55.336Z,60.90
2019-01-31T11:35:03.994Z,51.55
2019-01-31T11:38:03.896Z,58.48
2019-01-31T11:41:12.387Z,60.35
2019-01-31T11:44:10.477Z,64.10
2019-01-31T11:46:55.888Z,68.12
2019-01-31T11:49:50.291Z,66.57
2019-01-31T11:53:09.656Z,61.50
2019-01-31T11:56:15.408Z,58.50
2019-01-31T11:59:05.829Z,73.33
2019-01-31T12:01:35.644Z,67.53
2019-01-31T12:04:10.987Z,51.98
2019-01-31T12:06:39.961Z,62.38
2019-01-31T12:09:16.168Z,52.67
2019-01-31T12:11:45.170Z,61.30
2019-01-31T12:14:14.173Z,64.65
2019-01-31T12:16:43.157Z,59.98
2019-01-31T12:19:12.242Z,62.03
2019-01-31T12:21:41.342Z,66.12
2019-01-31T12:24:16.163Z,64.85
2019-01-31T12:26:41.073Z,61.10
2019-01-31T12:29:10.173Z,61.88
2019-01-31T12:31:39.425Z,54.10
2019-01-31T12:34:08.453Z,54.10
2019-01-31T12:36:37.350Z,63.98
2019-01-31T12:39:09.104Z,59.33
2019-01-31T12:41:38.146Z,56.05
2019-01-31T12:44:07.362Z,51.45
2019-01-31T12:46:36.360Z,53.40
2019-01-31T12:49:05.408Z,55.43
2019-01-31T12:51:34.398Z,51.85
2019-01-31T12:54:13.601Z,45.55
2019-01-31T12:56:42.585Z,45.67
2019-01-31T12:59:11.509Z,42.62
2019-01-31T13:01:40.525Z,43.42
2019-01-31T13:04:09.733Z,44.93
2019-01-31T13:06:38.744Z,43.55
2019-01-31T13:09:12.775Z,41.80
2019-01-31T13:11:41.757Z,42.40
2019-01-31T13:14:10.740Z,43.08
2019-01-31T13:16:39.729Z,44.77
2019-01-31T13:19:08.740Z,46.33
2019-01-31T13:21:37.753Z,39.70
2019-01-31T13:24:06.912Z,43.50
2019-01-31T13:26:35.921Z,40.92
2019-01-31T13:29:05.058Z,39.23
2019-01-31T13:31:33.967Z,40.05
2019-01-31T13:34:03.299Z,37.73
2019-01-31T13:36:32.310Z,35.23
2019-01-31T13:39:01.321Z,40.70
2019-01-31T13:41:30.309Z,39.83
2019-01-31T13:43:59.300Z,37.83
2019-01-31T13:46:28.279Z,42.20
2019-01-31T13:48:57.272Z,37.40
2019-01-31T13:51:26.395Z,36.58
2019-01-31T13:53:55.436Z,33.70
2019-01-31T13:56:24.432Z,36.35
2019-01-31T13:58:53.404Z,31.60
2019-01-31T14:01:22.337Z,32.53
2019-01-31T14:03:51.349Z,30.80
2019-01-31T14:06:20.309Z,37.45
2019-01-31T14:08:49.318Z,37.95
2019-01-31T14:11:18.316Z,27.75
2019-01-31T14:13:47.396Z,31.68
2019-01-31T14:16:16.490Z,30.90
2019-01-31T14:18:45.398Z,32.35
2019-01-31T14:21:14.430Z,27.82
2019-01-31T14:23:43.434Z,27.05
2019-01-31T14:26:14.103Z,25.12
2019-01-31T14:28:43.032Z,26.30
2019-01-31T14:31:11.952Z,29.32
2019-01-31T14:33:40.991Z,25.57
2019-01-31T14:36:13.124Z,27.58
2019-01-31T14:38:42.143Z,26.85
2019-01-31T14:41:11.250Z,23.05
2019-01-31T14:43:40.263Z,25.60
2019-01-31T14:46:09.260Z,23.00
2019-01-31T14:48:41.106Z,30.35
2019-01-31T14:51:10.133Z,27.50
2019-01-31T14:53:39.064Z,28.92
2019-01-31T14:56:08.080Z,23.90
2019-01-31T14:58:37.164Z,29.40
2019-01-31T15:01:06.202Z,29.55
2019-01-31T15:03:35.248Z,27.48
2019-01-31T15:06:04.363Z,25.43
2019-01-31T15:08:33.507Z,29.18
2019-01-31T15:11:05.629Z,30.23
2019-01-31T15:13:42.344Z,27.48
2019-01-31T15:16:07.094Z,28.52
2019-01-31T15:18:36.120Z,27.50
2019-01-31T15:21:08.032Z,27.50
2019-01-31T15:23:37.018Z,33.83
2019-01-31T15:26:06.011Z,30.70
2019-01-31T15:28:34.994Z,36.08
2019-01-31T15:31:04.020Z,35.90
2019-01-31T15:33:33.084Z,32.85
2019-01-31T15:36:02.121Z,32.85
2019-01-31T15:38:31.115Z,32.63
2019-01-31T15:41:00.111Z,29.98
2019-01-31T15:43:29.049Z,29.20
2019-01-31T15:45:58.284Z,32.90
2019-01-31T15:48:27.509Z,29.07
2019-01-31T15:50:56.636Z,27.58
2019-01-31T15:53:25.612Z,29.85
2019-01-31T15:55:54.603Z,24.47
2019-01-31T15:58:23.590Z,30.48
2019-01-31T16:00:54.636Z,32.30
2019-01-31T16:03:24.621Z,28.25
2019-01-31T16:05:55.370Z,38.17
2019-01-31T16:08:28.924Z,35.78
2019-01-31T16:10:59.062Z,33.85
2019-01-31T16:13:28.033Z,40.65
2019-01-31T16:15:57.050Z,34.60
2019-01-31T16:18:26.125Z,38.88
2019-01-31T16:20:55.055Z,37.53
2019-01-31T16:23:24.058Z,32.33
2019-01-31T16:25:53.086Z,28.20
2019-01-31T16:28:22.068Z,37.63
2019-01-31T16:30:51.169Z,50.60
2019-01-31T16:33:20.102Z,44.35
2019-01-31T16:35:49.702Z,43.13
2019-01-31T16:38:18.621Z,43.35
2019-01-31T16:40:47.715Z,45.20
2019-01-31T16:43:16.701Z,48.75
2019-01-31T16:45:46.346Z,44.80
2019-01-31T16:48:15.452Z,48.40
2019-01-31T16:50:44.428Z,50.92
2019-01-31T16:53:13.473Z,46.05
2019-01-31T16:55:42.488Z,46.63
2019-01-31T16:58:11.490Z,41.23
2019-01-31T17:00:40.484Z,41.25
2019-01-31T17:03:09.547Z,39.33
2019-01-31T17:05:38.558Z,45.52
2019-01-31T17:08:09.185Z,40.88
2019-01-31T17:10:41.037Z,39.13
2019-01-31T17:13:10.019Z,45.48
2019-01-31T17:15:39.092Z,43.98
2019-01-31T17:18:13.908Z,44.50
2019-01-31T17:20:44.472Z,44.08
2019-01-31T17:23:13.513Z,40.38
2019-01-31T17:25:42.637Z,40.23
2019-01-31T17:28:11.622Z,37.90
2019-01-31T17:30:40.629Z,42.13
2019-01-31T17:33:09.876Z,44.45
2019-01-31T17:35:38.837Z,44.77
2019-01-31T17:38:07.949Z,44.95
2019-01-31T17:40:38.993Z,41.30
2019-01-31T17:43:08.883Z,44.50
2019-01-31T17:45:37.862Z,38.75
2019-01-31T17:48:08.580Z,47.20
2019-01-31T17:50:37.510Z,39.92
2019-01-31T17:53:06.432Z,47.03
2019-01-31T17:55:35.413Z,46.90
2019-01-31T17:58:04.513Z,43.65
2019-01-31T18:00:38.662Z,45.50
2019-01-31T18:03:07.912Z,52.00
2019-01-31T18:05:37.076Z,53.70
2019-01-31T18:08:09.168Z,45.90
2019-01-31T18:10:37.125Z,48.40
2019-01-31T18:13:06.125Z,44.55
2019-01-31T18:15:42.155Z,54.67
2019-01-31T18:18:13.423Z,42.45
2019-01-31T18:20:42.495Z,51.90
2019-01-31T18:23:13.813Z,46.20
2019-01-31T18:25:42.897Z,38.67
2019-01-31T18:28:12.571Z,46.08
2019-01-31T18:30:41.633Z,48.42
2019-01-31T18:33:10.639Z,44.88
2019-01-31T18:35:39.565Z,37.85
2019-01-31T18:38:08.508Z,38.42
2019-01-31T18:40:37.477Z,41.30
2019-01-31T18:43:06.581Z,45.85
2019-01-31T18:45:35.625Z,47.67
2019-01-31T18:48:04.865Z,42.33
2019-01-31T18:50:39.564Z,39.80
2019-01-31T18:53:08.604Z,39.42
2019-01-31T18:55:37.595Z,41.15
2019-01-31T18:58:06.961Z,43.50
2019-01-31T19:00:41.108Z,45.25
2019-01-31T19:03:10.233Z,44.13
2019-01-31T19:05:39.327Z,38.20
2019-01-31T19:08:09.118Z,38.50
2019-01-31T19:10:43.350Z,38.67
2019-01-31T19:13:09.006Z,41.28
2019-01-31T19:15:38.080Z,44.98
2019-01-31T19:18:13.421Z,39.25
2019-01-31T19:20:42.464Z,33.67
2019-01-31T19:23:14.185Z,39.92
2019-01-31T19:25:47.146Z,49.20
2019-01-31T19:28:15.915Z,42.70
2019-01-31T19:30:44.938Z,45.25
2019-01-31T19:33:14.077Z,43.25
2019-01-31T19:35:43.088Z,45.70
2019-01-31T19:38:12.052Z,37.98
2019-01-31T19:40:46.162Z,47.75
2019-01-31T19:43:17.895Z,46.58
2019-01-31T19:45:51.039Z,44.40
2019-01-31T19:48:20.076Z,40.85
2019-01-31T19:50:52.296Z,40.60
2019-01-31T19:53:24.298Z,47.45
2019-01-31T19:55:56.316Z,45.15
2019-01-31T19:58:25.312Z,46.60
2019-01-31T20:00:54.360Z,43.38
2019-01-31T20:03:23.402Z,47.98
2019-01-31T20:05:52.419Z,54.53
2019-01-31T20:08:21.474Z,56.13
2019-01-31T20:10:50.640Z,58.70
2019-01-31T20:13:19.559Z,54.53
2019-01-31T20:15:48.589Z,57.43
2019-01-31T20:18:17.748Z,49.33
2019-01-31T20:20:46.779Z,52.95
2019-01-31T20:23:15.707Z,58.08
2019-01-31T20:25:44.714Z,57.50
2019-01-31T20:28:13.742Z,54.48
2019-01-31T20:30:42.789Z,55.10
2019-01-31T20:33:11.997Z,55.75
2019-01-31T20:35:41.097Z,52.27
2019-01-31T20:38:10.166Z,56.23
2019-01-31T20:40:41.077Z,61.58
2019-01-31T20:43:10.157Z,57.38
2019-01-31T20:45:39.288Z,60.23
2019-01-31T20:48:09.062Z,53.25
2019-01-31T20:50:40.020Z,53.70
2019-01-31T20:53:09.479Z,52.70
2019-01-31T20:55:38.739Z,48.25
2019-01-31T20:58:08.039Z,54.08
2019-01-31T21:00:42.014Z,55.55
2019-01-31T21:03:11.560Z,56.60
2019-01-31T21:05:41.027Z,53.48
2019-01-31T21:08:11.152Z,51.92
2019-01-31T21:10:40.184Z,49.88
2019-01-31T21:13:09.310Z,50.48
2019-01-31T21:15:38.458Z,52.30
2019-01-31T21:18:13.090Z,59.30
2019-01-31T21:20:42.072Z,57.93
2019-01-31T21:23:11.118Z,63.85
2019-01-31T21:25:40.490Z,62.45
2019-01-31T21:28:09.644Z,57.70
2019-01-31T21:30:40.638Z,55.05
2019-01-31T21:33:09.689Z,56.63
2019-01-31T21:35:39.113Z,60.38
2019-01-31T21:38:08.135Z,62.83
2019-01-31T21:40:38.014Z,63.70
2019-01-31T21:43:07.107Z,68.90
2019-01-31T21:45:36.204Z,64.87
2019-01-31T21:48:06.803Z,62.75
2019-01-31T21:50:35.726Z,54.83
2019-01-31T21:53:05.545Z,61.18
2019-01-31T21:55:34.547Z,57.00
2019-01-31T21:58:03.641Z,61.42
2019-01-31T22:00:33.317Z,58.68
2019-01-31T22:03:02.305Z,61.18
2019-01-31T22:05:31.339Z,55.70
2019-01-31T22:08:00.363Z,62.45
2019-01-31T22:10:29.362Z,56.73
2019-01-31T22:12:58.608Z,56.28
2019-01-31T22:15:29.346Z,51.15
2019-01-31T22:18:00.348Z,49.05
2019-01-31T22:20:29.262Z,57.25
2019-01-31T22:22:58.350Z,55.50
2019-01-31T22:25:27.401Z,57.62
2019-01-31T22:27:56.520Z,56.70
2019-01-31T22:30:33.413Z,54.38
2019-01-31T22:33:02.541Z,53.40
2019-01-31T22:35:31.650Z,49.08
2019-01-31T22:38:01.637Z,52.13
2019-01-31T22:40:30.647Z,52.00
2019-01-31T22:42:59.570Z,49.40
2019-01-31T22:45:28.599Z,61.28
2019-01-31T22:47:57.637Z,56.15
2019-01-31T22:50:26.641Z,51.80
2019-01-31T22:52:55.631Z,50.95
2019-01-31T22:55:25.497Z,50.12
2019-01-31T22:57:54.557Z,55.33
2019-01-31T23:00:59.480Z,49.42
2019-01-31T23:03:28.503Z,60.50
2019-01-31T23:05:58.604Z,51.68
2019-01-31T23:08:27.603Z,43.83
2019-01-31T23:10:56.587Z,52.53
2019-01-31T23:13:25.677Z,51.60
2019-01-31T23:15:55.617Z,42.95
2019-01-31T23:18:24.685Z,50.05
2019-01-31T23:20:53.843Z,52.10
2019-01-31T23:23:22.862Z,46.35
2019-01-31T23:25:51.872Z,46.53
2019-01-31T23:28:21.116Z,54.03
2019-01-31T23:30:50.086Z,47.73
2019-01-31T23:33:19.013Z,43.75
2019-01-31T23:35:47.961Z,41.53
2019-01-31T23:38:16.873Z,41.83
2019-01-31T23:40:45.868Z,45.17
2019-01-31T23:43:14.775Z,44.18
2019-01-31T23:45:43.789Z,46.00
2019-01-31T23:48:12.770Z,42.13
2019-01-31T23:50:41.769Z,43.42
2019-01-31T23:53:10.761Z,43.25
2019-01-31T23:55:39.662Z,47.00
2019-01-31T23:58:08.755Z,43.92
